createdAt,value
2022-10-11T00:01:51.633Z,13.59
2022-10-11T00:04:18.313Z,13.55
2022-10-11T00:06:45.177Z,13.51
2022-10-11T00:09:12.087Z,13.45
2022-10-11T00:11:42.188Z,13.43
2022-10-11T00:14:13.777Z,13.41
2022-10-11T00:16:47.662Z,13.43
2022-10-11T00:19:18.653Z,13.44
2022-10-11T00:21:45.872Z,13.42
2022-10-11T00:24:16.646Z,13.40
2022-10-11T00:26:46.773Z,13.39
2022-10-11T00:29:16.535Z,13.34
2022-10-11T00:31:47.076Z,13.32
2022-10-11T00:34:16.274Z,13.30
2022-10-11T00:36:45.882Z,13.27
2022-10-11T00:39:14.599Z,13.26
2022-10-11T00:41:41.962Z,13.24
2022-10-11T00:44:22.196Z,13.21
2022-10-11T00:47:02.129Z,13.22
2022-10-11T00:49:37.610Z,13.22
2022-10-11T00:52:14.077Z,13.28
2022-10-11T00:54:43.123Z,13.26
2022-10-11T00:57:17.703Z,13.26
2022-10-11T00:59:49.574Z,13.24
2022-10-11T01:02:16.464Z,13.22
2022-10-11T01:04:43.157Z,13.19
2022-10-11T01:07:11.097Z,13.19
2022-10-11T01:09:37.702Z,13.22
2022-10-11T01:12:12.536Z,13.24
2022-10-11T01:15:00.170Z,13.20
2022-10-11T01:17:41.257Z,13.20
2022-10-11T01:20:40.038Z,13.20
2022-10-11T01:23:40.245Z,13.19
2022-10-11T01:26:37.448Z,13.15
2022-10-11T01:29:35.928Z,13.11
2022-10-11T01:32:15.305Z,13.06
2022-10-11T01:35:28.151Z,13.07
2022-10-11T01:38:41.245Z,13.03
2022-10-11T01:41:19.012Z,13.02
2022-10-11T01:43:47.146Z,13.00
2022-10-11T01:46:14.946Z,12.98
2022-10-11T01:48:53.082Z,12.95
2022-10-11T01:51:27.337Z,12.95
2022-10-11T01:54:19.401Z,12.93
2022-10-11T01:57:04.549Z,12.95
2022-10-11T01:59:59.587Z,12.95
2022-10-11T02:02:41.252Z,12.93
2022-10-11T02:05:20.011Z,12.95
2022-10-11T02:07:52.232Z,12.95
2022-10-11T02:10:29.000Z,12.92
2022-10-11T02:13:03.235Z,12.93
2022-10-11T02:15:32.911Z,12.94
2022-10-11T02:18:03.330Z,12.93
2022-10-11T02:20:32.866Z,12.93
2022-10-11T02:23:08.064Z,12.89
2022-10-11T02:25:36.833Z,12.87
2022-10-11T02:28:10.826Z,12.87
2022-10-11T02:30:38.848Z,12.87
2022-10-11T02:33:10.198Z,12.85
2022-10-11T02:35:42.629Z,12.87
2022-10-11T02:38:19.162Z,12.86
2022-10-11T02:40:50.686Z,12.81
2022-10-11T02:43:24.983Z,12.81
2022-10-11T02:45:56.181Z,12.79
2022-10-11T02:48:25.200Z,12.73
2022-10-11T02:50:54.211Z,12.71
2022-10-11T02:53:21.257Z,12.70
2022-10-11T02:55:51.769Z,12.67
2022-10-11T02:58:18.659Z,12.64
2022-10-11T03:00:45.503Z,12.63
2022-10-11T03:03:12.162Z,12.59
2022-10-11T03:05:41.532Z,12.58
2022-10-11T03:08:09.985Z,12.54
2022-10-11T03:10:37.259Z,12.50
2022-10-11T03:13:03.989Z,12.50
2022-10-11T03:15:30.584Z,12.48
2022-10-11T03:17:57.253Z,12.48
2022-10-11T03:20:24.904Z,12.47
2022-10-11T03:22:51.473Z,12.43
2022-10-11T03:25:18.339Z,12.44
2022-10-11T03:27:46.033Z,12.44
2022-10-11T03:30:17.303Z,12.41
2022-10-11T03:32:44.700Z,12.40
2022-10-11T03:35:11.407Z,12.41
2022-10-11T03:37:38.152Z,12.41
2022-10-11T03:40:06.982Z,12.40
2022-10-11T03:42:33.567Z,12.38
2022-10-11T03:45:04.614Z,12.40
2022-10-11T03:47:32.103Z,12.41
2022-10-11T03:49:58.698Z,12.40
2022-10-11T03:52:25.472Z,12.43
2022-10-11T03:54:52.508Z,12.47
2022-10-11T03:57:19.313Z,12.49
2022-10-11T03:59:45.919Z,12.50
2022-10-11T04:02:12.576Z,12.51
2022-10-11T04:04:39.380Z,12.51
2022-10-11T04:07:06.026Z,12.52
2022-10-11T04:09:32.659Z,12.56
2022-10-11T04:12:01.451Z,12.57
2022-10-11T04:14:28.159Z,12.56
2022-10-11T04:16:57.375Z,12.60
2022-10-11T04:19:27.169Z,12.61
2022-10-11T04:21:53.732Z,12.62
2022-10-11T04:24:20.356Z,12.64
2022-10-11T04:26:46.988Z,12.67
2022-10-11T04:29:13.954Z,12.68
2022-10-11T04:31:40.538Z,12.70
2022-10-11T04:34:07.401Z,12.71
2022-10-11T04:36:34.121Z,12.73
2022-10-11T04:39:01.744Z,12.75
2022-10-11T04:41:29.499Z,12.77
2022-10-11T04:43:56.562Z,12.77
2022-10-11T04:46:23.762Z,12.77
2022-10-11T04:48:50.827Z,12.79
2022-10-11T04:51:18.348Z,12.79
2022-10-11T04:53:45.145Z,12.80
2022-10-11T04:56:12.119Z,12.79
2022-10-11T04:58:42.204Z,12.79
2022-10-11T05:01:09.794Z,12.79
2022-10-11T05:03:37.732Z,12.80
2022-10-11T05:06:09.518Z,12.82
2022-10-11T05:08:38.293Z,12.84
2022-10-11T05:11:07.337Z,12.85
2022-10-11T05:13:35.713Z,12.86
2022-10-11T05:16:05.979Z,12.88
2022-10-11T05:18:36.969Z,12.89
2022-10-11T05:21:14.504Z,12.91
2022-10-11T05:23:41.100Z,12.92
2022-10-11T05:26:08.413Z,12.95
2022-10-11T05:28:35.660Z,12.98
2022-10-11T05:31:02.323Z,13.01
2022-10-11T05:33:29.152Z,13.02
2022-10-11T05:35:55.823Z,13.06
2022-10-11T05:38:23.028Z,13.09
2022-10-11T05:40:49.768Z,13.15
2022-10-11T05:43:16.419Z,13.17
2022-10-11T05:45:43.715Z,13.21
2022-10-11T05:48:10.867Z,13.24
2022-10-11T05:50:38.481Z,13.23
2022-10-11T05:53:05.805Z,13.27
2022-10-11T05:55:40.624Z,13.28
2022-10-11T05:58:08.367Z,13.35
2022-10-11T06:00:41.349Z,13.41
2022-10-11T06:03:10.706Z,13.46
2022-10-11T06:05:43.285Z,13.52
2022-10-11T06:08:11.211Z,13.59
2022-10-11T06:10:38.778Z,13.64
2022-10-11T06:13:06.197Z,13.69
2022-10-11T06:15:33.649Z,13.72
2022-10-11T06:18:00.491Z,13.79
2022-10-11T06:20:27.210Z,13.84
2022-10-11T06:22:53.979Z,13.93
2022-10-11T06:25:21.730Z,13.97
2022-10-11T06:27:49.676Z,14.09
2022-10-11T06:30:16.330Z,14.09
2022-10-11T06:32:42.919Z,14.16
2022-10-11T06:35:09.781Z,14.23
2022-10-11T06:37:36.959Z,14.29
2022-10-11T06:40:04.102Z,14.33
2022-10-11T06:42:30.733Z,14.47
2022-10-11T06:44:58.639Z,14.50
2022-10-11T06:47:25.471Z,14.46
2022-10-11T06:49:52.145Z,14.53
2022-10-11T06:52:18.787Z,14.52
2022-10-11T06:54:45.746Z,14.57
2022-10-11T06:57:12.630Z,14.64
2022-10-11T06:59:39.288Z,14.62
2022-10-11T07:02:07.259Z,14.69
2022-10-11T07:04:34.055Z,14.69
2022-10-11T07:07:00.891Z,14.67
2022-10-11T07:09:31.788Z,14.72
2022-10-11T07:12:03.435Z,14.83
2022-10-11T07:14:33.369Z,14.90
2022-10-11T07:17:09.632Z,14.88
2022-10-11T07:19:38.509Z,15.01
2022-10-11T07:22:07.163Z,15.08
2022-10-11T07:24:34.063Z,15.18
2022-10-11T07:27:05.052Z,15.25
2022-10-11T07:29:33.004Z,15.36
2022-10-11T07:32:01.780Z,15.48
2022-10-11T07:34:32.192Z,15.49
2022-10-11T07:37:02.108Z,15.47
2022-10-11T07:39:37.958Z,15.53
2022-10-11T07:42:06.949Z,15.58
2022-10-11T07:44:37.415Z,15.70
2022-10-11T07:47:06.695Z,15.76
2022-10-11T07:49:37.325Z,15.80
2022-10-11T07:52:04.045Z,15.88
2022-10-11T07:54:30.659Z,15.89
2022-10-11T07:56:57.314Z,15.81
2022-10-11T07:59:23.905Z,15.84
2022-10-11T08:01:50.760Z,15.83
2022-10-11T08:04:17.512Z,15.88
2022-10-11T08:06:44.136Z,15.83
2022-10-11T08:09:12.234Z,15.92
2022-10-11T08:11:39.806Z,15.93
2022-10-11T08:14:09.139Z,15.79
2022-10-11T08:16:36.526Z,15.79
2022-10-11T08:19:03.479Z,15.92
2022-10-11T08:21:30.542Z,15.97
2022-10-11T08:23:57.180Z,16.03
2022-10-11T08:26:24.798Z,16.16
2022-10-11T08:28:52.183Z,16.26
2022-10-11T08:31:19.113Z,16.33
2022-10-11T08:33:45.887Z,16.34
2022-10-11T08:36:13.500Z,16.36
2022-10-11T08:38:41.270Z,16.44
2022-10-11T08:41:36.621Z,16.57
2022-10-11T08:44:51.783Z,16.64
2022-10-11T08:47:33.937Z,16.75
2022-10-11T08:50:01.204Z,16.74
2022-10-11T08:52:34.891Z,16.87
2022-10-11T08:55:08.174Z,16.98
2022-10-11T08:57:37.452Z,17.04
2022-10-11T09:00:16.866Z,17.03
2022-10-11T09:03:18.819Z,16.97
2022-10-11T09:06:15.219Z,16.98
2022-10-11T09:09:00.181Z,17.13
2022-10-11T09:12:03.881Z,17.21
2022-10-11T09:15:03.765Z,17.29
2022-10-11T09:17:58.182Z,17.24
2022-10-11T09:20:46.638Z,17.12
2022-10-11T09:23:34.383Z,17.11
2022-10-11T09:26:07.417Z,17.11
2022-10-11T09:29:09.933Z,17.05
2022-10-11T09:31:36.422Z,17.11
2022-10-11T09:34:14.234Z,17.25
2022-10-11T09:37:09.833Z,17.14
2022-10-11T09:39:45.925Z,17.20
2022-10-11T09:42:12.923Z,17.33
2022-10-11T09:44:45.809Z,17.51
2022-10-11T09:47:26.865Z,17.47
2022-10-11T09:50:15.635Z,17.52
2022-10-11T09:53:00.612Z,17.67
2022-10-11T09:55:40.967Z,17.60
2022-10-11T09:58:33.420Z,17.49
2022-10-11T10:01:21.697Z,17.47
2022-10-11T10:04:03.058Z,17.43
2022-10-11T10:06:29.664Z,17.53
2022-10-11T10:09:25.294Z,17.47
2022-10-11T10:11:52.948Z,17.32
2022-10-11T10:14:28.106Z,17.09
2022-10-11T10:17:18.417Z,16.99
2022-10-11T10:19:55.581Z,17.00
2022-10-11T10:22:31.993Z,16.87
2022-10-11T10:25:04.843Z,16.65
2022-10-11T10:27:32.706Z,16.66
2022-10-11T10:30:08.845Z,16.73
2022-10-11T10:33:06.306Z,16.66
2022-10-11T10:35:47.229Z,16.65
2022-10-11T10:38:46.525Z,16.70
2022-10-11T10:41:19.060Z,16.83
2022-10-11T10:43:52.463Z,16.90
2022-10-11T10:46:47.736Z,16.94
2022-10-11T10:49:48.899Z,16.55
2022-10-11T10:52:43.598Z,16.51
2022-10-11T10:55:14.023Z,16.66
2022-10-11T10:57:40.557Z,16.54
2022-10-11T11:00:16.732Z,16.40
2022-10-11T11:03:01.891Z,16.23
2022-10-11T11:05:44.257Z,16.40
2022-10-11T11:08:13.374Z,16.49
2022-10-11T11:11:00.018Z,16.60
2022-10-11T11:13:45.378Z,16.59
2022-10-11T11:16:20.839Z,16.56
2022-10-11T11:18:52.991Z,16.71
2022-10-11T11:21:19.611Z,16.63
2022-10-11T11:24:22.889Z,16.76
2022-10-11T11:27:01.458Z,16.89
2022-10-11T11:30:08.714Z,16.61
2022-10-11T11:32:57.096Z,16.54
2022-10-11T11:35:53.529Z,16.32
2022-10-11T11:38:34.050Z,16.23
2022-10-11T11:41:07.068Z,16.42
2022-10-11T11:43:39.741Z,16.43
2022-10-11T11:46:19.453Z,16.37
2022-10-11T11:48:48.783Z,16.59
2022-10-11T11:51:21.224Z,16.65
2022-10-11T11:54:08.370Z,16.59
2022-10-11T11:57:03.242Z,16.57
2022-10-11T12:00:15.162Z,16.47
2022-10-11T12:02:55.330Z,16.37
2022-10-11T12:05:28.000Z,16.45
2022-10-11T12:08:01.479Z,16.58
2022-10-11T12:10:34.203Z,16.68
2022-10-11T12:13:09.222Z,16.75
2022-10-11T12:15:37.570Z,16.67
2022-10-11T12:18:15.335Z,16.61
2022-10-11T12:21:23.781Z,16.50
2022-10-11T12:23:53.219Z,16.57
2022-10-11T12:26:29.045Z,16.48
2022-10-11T12:29:28.394Z,16.42
2022-10-11T12:32:03.692Z,16.37
2022-10-11T12:34:43.627Z,16.26
2022-10-11T12:37:19.562Z,16.41
2022-10-11T12:39:49.234Z,16.50
2022-10-11T12:42:32.524Z,16.49
2022-10-11T12:45:11.964Z,16.50
2022-10-11T12:48:07.245Z,16.52
2022-10-11T12:50:34.851Z,16.48
2022-10-11T12:53:27.905Z,16.51
2022-10-11T12:56:18.381Z,16.46
2022-10-11T12:58:48.126Z,16.49
2022-10-11T13:01:15.465Z,16.59
2022-10-11T13:03:50.828Z,16.58
2022-10-11T13:06:27.049Z,16.57
2022-10-11T13:08:57.588Z,16.56
2022-10-11T13:11:31.277Z,16.65
2022-10-11T13:14:01.526Z,16.67
2022-10-11T13:16:42.003Z,16.82
2022-10-11T13:19:13.232Z,16.87
2022-10-11T13:21:40.878Z,16.97
2022-10-11T13:24:15.799Z,17.00
2022-10-11T13:26:46.447Z,17.15
2022-10-11T13:29:38.424Z,17.22
2022-10-11T13:32:24.245Z,17.30
2022-10-11T13:35:23.954Z,17.32
2022-10-11T13:37:51.861Z,17.35
2022-10-11T13:40:22.299Z,17.34
2022-10-11T13:42:50.909Z,17.32
2022-10-11T13:45:23.348Z,17.28
2022-10-11T13:47:51.796Z,17.24
2022-10-11T13:50:35.869Z,17.23
2022-10-11T13:53:23.975Z,17.31
2022-10-11T13:56:00.411Z,17.31
2022-10-11T13:58:30.338Z,17.21
2022-10-11T14:01:03.505Z,16.93
2022-10-11T14:03:42.555Z,16.81
2022-10-11T14:06:10.035Z,16.82
2022-10-11T14:08:45.110Z,16.76
2022-10-11T14:11:14.268Z,16.69
2022-10-11T14:13:47.349Z,16.65
2022-10-11T14:16:30.787Z,16.66
2022-10-11T14:19:00.418Z,16.67
2022-10-11T14:21:35.207Z,16.64
2022-10-11T14:24:05.769Z,16.53
2022-10-11T14:26:38.535Z,16.55
2022-10-11T14:29:27.587Z,16.48
2022-10-11T14:31:59.651Z,16.47
2022-10-11T14:34:27.689Z,16.41
2022-10-11T14:36:55.209Z,16.37
2022-10-11T14:39:25.113Z,16.23
2022-10-11T14:41:53.217Z,16.19
2022-10-11T14:44:21.912Z,16.15
2022-10-11T14:46:50.900Z,16.16
2022-10-11T14:49:20.472Z,16.13
2022-10-11T14:51:50.326Z,16.10
2022-10-11T14:54:19.150Z,16.08
2022-10-11T14:56:47.443Z,16.09
2022-10-11T14:59:16.940Z,16.01
2022-10-11T15:01:45.242Z,15.99
2022-10-11T15:04:12.361Z,15.99
2022-10-11T15:06:41.899Z,15.97
2022-10-11T15:09:08.734Z,15.98
2022-10-11T15:11:38.040Z,15.95
2022-10-11T15:14:06.105Z,15.94
2022-10-11T15:16:34.794Z,15.91
2022-10-11T15:19:01.645Z,15.83
2022-10-11T15:21:29.369Z,15.78
2022-10-11T15:23:57.176Z,15.80
2022-10-11T15:26:28.149Z,15.66
2022-10-11T15:28:57.442Z,15.63
2022-10-11T15:31:24.441Z,15.59
2022-10-11T15:33:53.202Z,15.62
2022-10-11T15:36:22.559Z,15.59
2022-10-11T15:38:50.284Z,15.48
2022-10-11T15:41:19.941Z,15.50
2022-10-11T15:43:50.504Z,15.43
2022-10-11T15:46:22.302Z,15.41
2022-10-11T15:48:51.210Z,15.44
2022-10-11T15:51:18.230Z,15.40
2022-10-11T15:53:45.531Z,15.36
2022-10-11T15:56:18.911Z,15.36
2022-10-11T15:58:46.613Z,15.34
2022-10-11T16:01:16.619Z,15.31
2022-10-11T16:03:44.496Z,15.30
2022-10-11T16:06:12.092Z,15.31
2022-10-11T16:08:40.061Z,15.30
2022-10-11T16:11:08.712Z,15.23
2022-10-11T16:13:37.290Z,15.22
2022-10-11T16:16:06.311Z,15.22
2022-10-11T16:18:35.600Z,15.21
2022-10-11T16:21:06.989Z,15.21
2022-10-11T16:23:34.643Z,15.21
2022-10-11T16:26:04.423Z,15.19
2022-10-11T16:28:32.856Z,15.16
2022-10-11T16:31:05.492Z,15.15
2022-10-11T16:33:33.072Z,15.12
2022-10-11T16:36:19.567Z,15.13
2022-10-11T16:38:47.114Z,15.06
2022-10-11T16:41:13.835Z,15.04
2022-10-11T16:43:41.741Z,14.99
2022-10-11T16:46:11.124Z,14.98
2022-10-11T16:48:40.139Z,14.96
2022-10-11T16:51:08.034Z,14.94
2022-10-11T16:53:38.070Z,14.94
2022-10-11T16:56:07.261Z,14.91
2022-10-11T16:58:36.840Z,14.91
2022-10-11T17:01:09.134Z,14.89
2022-10-11T17:03:36.990Z,14.87
2022-10-11T17:06:04.780Z,14.85
2022-10-11T17:08:32.540Z,14.83
2022-10-11T17:10:59.317Z,14.81
2022-10-11T17:13:27.144Z,14.79
2022-10-11T17:15:53.871Z,14.80
2022-10-11T17:18:21.204Z,14.78
2022-10-11T17:20:47.910Z,14.77
2022-10-11T17:23:15.469Z,14.75
2022-10-11T17:25:43.343Z,14.73
2022-10-11T17:28:10.035Z,14.71
2022-10-11T17:30:37.578Z,14.70
2022-10-11T17:33:04.242Z,14.67
2022-10-11T17:35:33.133Z,14.65
2022-10-11T17:38:05.118Z,14.67
2022-10-11T17:40:33.608Z,14.66
2022-10-11T17:43:00.369Z,14.66
2022-10-11T17:45:28.139Z,14.66
2022-10-11T17:47:54.980Z,14.68
2022-10-11T17:50:23.483Z,14.66
2022-10-11T17:52:50.140Z,14.64
2022-10-11T17:55:18.298Z,14.63
2022-10-11T17:57:45.748Z,14.63
2022-10-11T18:00:14.225Z,14.61
2022-10-11T18:02:41.561Z,14.61
2022-10-11T18:05:09.288Z,14.60
2022-10-11T18:07:35.943Z,14.57
2022-10-11T18:10:04.071Z,14.57
2022-10-11T18:12:30.913Z,14.57
2022-10-11T18:14:58.752Z,14.57
2022-10-11T18:17:25.490Z,14.59
2022-10-11T18:19:52.836Z,14.57
2022-10-11T18:22:19.434Z,14.58
2022-10-11T18:24:46.717Z,14.56
2022-10-11T18:27:13.488Z,14.55
2022-10-11T18:29:40.810Z,14.56
2022-10-11T18:32:07.365Z,14.56
2022-10-11T18:34:34.832Z,14.57
2022-10-11T18:37:01.923Z,14.57
2022-10-11T18:39:30.987Z,14.56
2022-10-11T18:41:57.635Z,14.54
2022-10-11T18:44:25.077Z,14.53
2022-10-11T18:46:51.912Z,14.51
2022-10-11T18:49:18.574Z,14.47
2022-10-11T18:51:47.116Z,14.46
2022-10-11T18:54:20.333Z,14.45
2022-10-11T18:56:49.696Z,14.45
2022-10-11T18:59:16.584Z,14.44
2022-10-11T19:01:45.815Z,14.42
2022-10-11T19:04:16.173Z,14.44
2022-10-11T19:06:54.333Z,14.43
2022-10-11T19:09:24.410Z,14.44
2022-10-11T19:12:00.241Z,14.44
2022-10-11T19:14:30.322Z,14.44
2022-10-11T19:16:58.097Z,14.45
2022-10-11T19:19:29.247Z,14.45
2022-10-11T19:21:56.776Z,14.44
2022-10-11T19:24:25.846Z,14.44
2022-10-11T19:27:01.190Z,14.43
2022-10-11T19:29:29.261Z,14.43
2022-10-11T19:31:59.814Z,14.45
2022-10-11T19:34:28.039Z,14.44
2022-10-11T19:36:57.240Z,14.44
2022-10-11T19:39:24.983Z,14.42
2022-10-11T19:41:53.130Z,14.40
2022-10-11T19:44:20.224Z,14.40
2022-10-11T19:46:51.930Z,14.40
2022-10-11T19:49:21.542Z,14.37
2022-10-11T19:51:48.935Z,14.36
2022-10-11T19:54:17.112Z,14.36
2022-10-11T19:56:45.464Z,14.36
2022-10-11T19:59:12.782Z,14.35
2022-10-11T20:01:41.085Z,14.35
2022-10-11T20:04:22.635Z,14.35
2022-10-11T20:06:59.309Z,14.35
2022-10-11T20:09:30.636Z,14.36
2022-10-11T20:12:03.065Z,14.38
2022-10-11T20:14:29.683Z,14.38
2022-10-11T20:16:57.157Z,14.39
2022-10-11T20:19:30.695Z,14.37
2022-10-11T20:21:59.893Z,14.38
2022-10-11T20:24:28.981Z,14.39
2022-10-11T20:26:57.184Z,14.40
2022-10-11T20:29:27.245Z,14.38
2022-10-11T20:31:54.780Z,14.37
2022-10-11T20:34:21.353Z,14.38
2022-10-11T20:36:49.483Z,14.37
2022-10-11T20:39:16.869Z,14.38
2022-10-11T20:41:44.610Z,14.38
2022-10-11T20:44:13.162Z,14.38
2022-10-11T20:46:40.885Z,14.38
2022-10-11T20:49:10.470Z,14.42
2022-10-11T20:51:40.265Z,14.42
2022-10-11T20:54:11.991Z,14.39
2022-10-11T20:56:39.770Z,14.39
2022-10-11T20:59:06.915Z,14.40
2022-10-11T21:01:38.291Z,14.42
2022-10-11T21:04:07.095Z,14.40
2022-10-11T21:06:34.790Z,14.38
2022-10-11T21:09:01.769Z,14.35
2022-10-11T21:11:30.897Z,14.33
2022-10-11T21:13:59.705Z,14.32
2022-10-11T21:16:27.420Z,14.32
2022-10-11T21:18:57.178Z,14.31
2022-10-11T21:21:24.367Z,14.29
2022-10-11T21:24:02.777Z,14.26
2022-10-11T21:26:30.487Z,14.25
2022-10-11T21:28:59.945Z,14.25
2022-10-11T21:31:31.078Z,14.22
2022-10-11T21:34:01.239Z,14.18
2022-10-11T21:36:28.435Z,14.18
2022-10-11T21:39:15.699Z,14.18
2022-10-11T21:41:42.366Z,14.17
2022-10-11T21:44:09.993Z,14.17
2022-10-11T21:47:04.933Z,14.13
2022-10-11T21:49:23.909Z,14.12
2022-10-11T21:51:51.056Z,14.11
2022-10-11T21:54:18.617Z,14.10
2022-10-11T21:56:45.361Z,14.10
2022-10-11T21:59:12.987Z,14.08
2022-10-11T22:01:41.283Z,14.08
2022-10-11T22:04:09.215Z,14.10
2022-10-11T22:06:36.828Z,14.10
2022-10-11T22:09:06.011Z,14.08
2022-10-11T22:11:32.724Z,14.08
2022-10-11T22:13:59.618Z,14.07
2022-10-11T22:16:26.235Z,14.06
2022-10-11T22:18:56.105Z,14.08
2022-10-11T22:21:23.844Z,14.07
2022-10-11T22:23:52.396Z,14.05
2022-10-11T22:26:21.631Z,14.05
2022-10-11T22:28:48.761Z,14.04
2022-10-11T22:31:17.511Z,14.02
2022-10-11T22:36:12.987Z,13.97
2022-10-11T22:38:41.484Z,13.96
2022-10-11T22:41:08.829Z,13.94
2022-10-11T22:43:35.671Z,13.93
2022-10-11T22:46:02.647Z,13.92
2022-10-11T22:48:29.870Z,13.91
2022-10-11T22:50:56.528Z,13.90
2022-10-11T22:53:23.189Z,13.88
2022-10-11T22:55:49.824Z,13.86
2022-10-11T22:58:16.455Z,13.86
2022-10-11T23:00:43.320Z,13.87
2022-10-11T23:03:14.183Z,13.87
2022-10-11T23:05:41.005Z,13.84
2022-10-11T23:08:09.508Z,13.82
2022-10-11T23:10:40.083Z,13.81
2022-10-11T23:13:07.029Z,13.80
2022-10-11T23:15:33.591Z,13.81
2022-10-11T23:18:00.287Z,13.84
2022-10-11T23:20:26.996Z,13.83
2022-10-11T23:22:53.676Z,13.82
2022-10-11T23:25:20.301Z,13.82
2022-10-11T23:27:46.863Z,13.82
2022-10-11T23:30:14.324Z,13.82
2022-10-11T23:32:40.905Z,13.82
2022-10-11T23:35:07.887Z,13.80
2022-10-11T23:37:34.682Z,13.81
2022-10-11T23:40:01.535Z,13.80
2022-10-11T23:42:28.170Z,13.78
2022-10-11T23:44:54.793Z,13.77
2022-10-11T23:47:21.409Z,13.76
2022-10-11T23:49:47.969Z,13.75
2022-10-11T23:52:14.575Z,13.76
2022-10-11T23:54:41.205Z,13.75
2022-10-11T23:57:07.798Z,13.72
2022-10-11T23:59:34.379Z,13.70
